Main page
METAR-TAF:

METAR-TAF

Airports :

Algeciras, Spain

Algeciras Heliport

latitude: 36-07-44N, longitude: 05-26-28W, elevation: 30 m

Current weather observation

The report was made 18 minutes ago, at 16:30 UTC
Wind 8 kt from the West/Northwest, varying between West/Southwest and North/Northwest
Temperature 31°C
Humidity 33%
Pressure 1013 hPa
Visibility 10 km or more
no clouds below 1500 m and no cumulonimbus

METAR: LEAG 221630Z AUTO 29008KT 250V340 CAVOK 31/13 Q1013

Time: 18:48 (16:48 UTC)


TAF: missing

Weather observations and forecasts of more than 4000 airports (METAR and TAF reports).

The available stations are represented by yellow and red dots on the map.

Hover mouse over dot to see the name of the station.

Then click to see weather observations and forecasts.

To change the map : click on the green buttons with a black cross to zoom in, on the green button with a dash to zoom out, or on the green arrows for adjacent maps.


METAR-TAF: